Time;durP1;ratioP1;P1;durP2;ratioP2;P2;SDS_P1;SDS_P2;PMS_P1;PMS_P2;Temp;Humidity;BMP_temperature;BMP_pressure;BME280_temperature;BME280_humidity;BME280_pressure;Samples;Min_cycle;Max_cycle;Signal;HPM_P1;HPM_P2
2021/10/01 00:01:31;;;;;;;13.45;6.80;;;;;16.80;99951.00;;;;4818448;29;20411;-78
2021/10/01 00:04:00;;;;;;;10.88;6.85;;;;;16.70;99943.00;;;;4818981;29;20065;-77
2021/10/01 00:06:30;;;;;;;10.05;5.28;;;;;16.70;99927.00;;;;4817445;29;20526;-77
2021/10/01 00:09:04;;;;;;;4.40;3.92;;;;;16.80;99960.00;;;;4819336;29;20141;-78
2021/10/01 00:11:33;;;;;;;5.53;4.05;;;;;16.80;99966.00;;;;4818431;29;20050;-77
2021/10/01 00:14:03;;;;;;;6.07;5.45;;;;;16.90;99977.00;;;;4818456;29;20038;-80
2021/10/01 00:16:32;;;;;;;7.28;6.15;;;;;16.90;99972.00;;;;4819087;29;20069;-78
2021/10/01 00:19:02;;;;;;;8.18;6.43;;;;;16.90;99971.00;;;;4819202;29;20050;-78
2021/10/01 00:21:31;;;;;;;9.35;7.70;;;;;16.90;99973.00;;;;4819127;29;20081;-77
2021/10/01 00:24:01;;;;;;;12.85;8.20;;;;;16.80;99946.00;;;;4801463;29;20554;-81
2021/10/01 00:26:31;;;;;;;9.07;5.43;;;;;16.90;99966.00;;;;4797989;29;20057;-76
2021/10/01 00:29:00;;;;;;;7.28;5.85;;;;;16.80;99991.00;;;;4799489;29;20628;-77
2021/10/01 00:31:30;;;;;;;7.15;4.70;;;;;16.80;99969.00;;;;4799258;29;20055;-77
2021/10/01 00:34:01;;;;;;;6.45;5.15;;;;;16.80;99918.00;;;;4800174;29;20051;-79
2021/10/01 00:36:31;;;;;;;6.55;3.47;;;;;16.80;99890.00;;;;4800662;29;20050;-77
2021/10/01 00:39:00;;;;;;;4.85;3.75;;;;;16.80;99833.00;;;;4799740;29;20070;-78
2021/10/01 00:41:30;;;;;;;3.63;3.33;;;;;16.80;99868.00;;;;4799333;29;20062;-77
2021/10/01 00:44:01;;;;;;;6.13;3.45;;;;;16.80;99936.00;;;;4800433;29;20545;-79
2021/10/01 00:46:34;;;;;;;3.55;3.25;;;;;16.80;99958.00;;;;4799655;29;20569;-78
2021/10/01 00:49:04;;;;;;;4.75;3.50;;;;;16.80;99929.00;;;;4798050;29;20141;-79
2021/10/01 00:51:35;;;;;;;2.72;2.50;;;;;16.70;99944.00;;;;4798782;29;20133;-77
2021/10/01 00:54:05;;;;;;;7.68;2.67;;;;;16.80;99913.00;;;;4799645;29;20519;-78
2021/10/01 00:56:35;;;;;;;5.13;2.17;;;;;16.70;99878.00;;;;4798824;29;20073;-78
2021/10/01 00:59:05;;;;;;;3.72;1.67;;;;;16.70;99839.00;;;;4783477;29;20058;-80
2021/10/01 01:01:36;;;;;;;1.52;1.35;;;;;16.60;99807.00;;;;4803559;29;20047;-78
2021/10/01 01:04:10;;;;;;;1.77;1.20;;;;;16.60;99822.00;;;;4816344;29;20062;-77
2021/10/01 01:07:06;;;;;;;0.68;0.68;;;;;16.60;99857.00;;;;4817332;29;20058;-77
2021/10/01 01:10:05;;;;;;;3.22;0.80;;;;;16.60;99852.00;;;;4805351;29;20047;-78
2021/10/01 01:12:50;;;;;;;0.63;0.63;;;;;16.70;99805.00;;;;4797260;29;20046;-78
2021/10/01 01:15:22;;;;;;;1.77;0.50;;;;;16.70;99751.00;;;;4797822;29;20059;-78
2021/10/01 01:18:00;;;;;;;0.30;0.30;;;;;16.60;99762.00;;;;4783283;29;20055;-78
2021/10/01 01:20:50;;;;;;;0.30;0.30;;;;;16.60;99763.00;;;;4795318;29;20322;-81
2021/10/01 01:23:50;;;;;;;0.30;0.30;;;;;16.60;99877.00;;;;4798234;29;20511;-78
2021/10/01 01:26:45;;;;;;;0.30;0.30;;;;;16.70;100017.00;;;;4797644;29;20166;-79
2021/10/01 01:29:31;;;;;;;0.20;0.20;;;;;16.70;100067.00;;;;4783518;29;20059;-79
2021/10/01 01:32:10;;;;;;;1.08;0.70;;;;;16.80;100045.00;;;;4799116;29;20053;-80
2021/10/01 01:34:53;;;;;;;23.30;6.75;;;;;16.80;99934.00;;;;4799445;29;20130;-79
2021/10/01 01:37:32;;;;;;;16.13;7.43;;;;;16.70;99864.00;;;;4781585;29;20065;-81
2021/10/01 01:40:05;;;;;;;22.80;9.13;;;;;16.60;99811.00;;;;4798080;29;20530;-77
2021/10/01 01:42:38;;;;;;;10.88;6.70;;;;;16.60;99747.00;;;;4799948;29;20398;-78
2021/10/01 01:45:11;;;;;;;0.10;0.10;;;;;16.50;99764.00;;;;4788646;29;20403;-79
2021/10/01 01:47:42;;;;;;;5.57;2.67;;;;;16.60;99795.00;;;;4788566;29;20057;-77
2021/10/01 01:50:14;;;;;;;7.53;2.85;;;;;16.60;99822.00;;;;4804139;29;20051;-79
2021/10/01 01:52:45;;;;;;;7.47;3.22;;;;;16.60;99909.00;;;;4804447;29;20047;-77
2021/10/01 01:55:15;;;;;;;2.72;2.33;;;;;16.60;99947.00;;;;4803989;29;20070;-77
2021/10/01 01:57:50;;;;;;;2.33;1.65;;;;;16.60;99890.00;;;;4804235;29;20074;-79
2021/10/01 02:00:38;;;;;;;4.88;2.83;;;;;16.60;99886.00;;;;4788829;29;20050;-78
2021/10/01 02:03:09;;;;;;;4.05;3.10;;;;;16.60;99877.00;;;;4820886;29;20418;-79
2021/10/01 02:05:43;;;;;;;12.93;7.57;;;;;16.70;99866.00;;;;4821767;29;20157;-78
2021/10/01 02:08:15;;;;;;;11.77;7.28;;;;;16.70;99879.00;;;;4823627;29;20430;-78
2021/10/01 02:10:47;;;;;;;13.38;7.10;;;;;16.70;99877.00;;;;4821329;29;20103;-78
2021/10/01 02:13:19;;;;;;;9.98;6.25;;;;;16.80;99864.00;;;;4807317;29;20517;-76
2021/10/01 02:15:58;;;;;;;8.85;6.68;;;;;16.80;99791.00;;;;4821789;29;20050;-77
2021/10/01 02:18:30;;;;;;;5.45;4.95;;;;;16.70;99786.00;;;;4822393;29;20057;-79
2021/10/01 02:21:02;;;;;;;6.22;4.72;;;;;16.70;99789.00;;;;4821716;29;20549;-76
2021/10/01 02:23:34;;;;;;;5.30;4.60;;;;;16.80;99796.00;;;;4822351;29;20054;-76
2021/10/01 02:29:39;;;;;;;5.95;3.38;;;;;16.70;99781.00;;;;4821884;29;20058;-78
2021/10/01 02:32:30;;;;;;;4.75;3.00;;;;;16.70;99781.00;;;;4805959;29;20054;-78
2021/10/01 02:35:02;;;;;;;3.00;1.42;;;;;16.70;99788.00;;;;4821490;29;20131;-77
2021/10/01 02:37:33;;;;;;;1.70;1.60;;;;;16.70;99792.00;;;;4806624;29;20595;-76
2021/10/01 02:40:05;;;;;;;3.75;2.42;;;;;16.80;99789.00;;;;4821695;29;20068;-78
2021/10/01 02:42:36;;;;;;;3.88;1.88;;;;;16.80;99832.00;;;;4821734;29;20066;-76
2021/10/01 02:45:08;;;;;;;1.65;1.55;;;;;16.80;99873.00;;;;4821644;29;20518;-77
2021/10/01 02:47:40;;;;;;;2.40;2.08;;;;;16.80;99904.00;;;;4815556;29;20119;-78
2021/10/01 02:50:23;;;;;;;5.88;3.08;;;;;16.90;99935.00;;;;4816776;29;20058;-79
2021/10/01 02:53:06;;;;;;;14.02;3.08;;;;;16.80;99882.00;;;;4821380;29;20065;-80
2021/10/01 02:55:41;;;;;;;27.63;6.53;;;;;16.80;99930.00;;;;4819278;29;20066;-82
2021/10/01 02:58:22;;;;;;;18.65;8.18;;;;;16.80;99934.00;;;;4823535;29;20050;-83
2021/10/01 03:00:54;;;;;;;22.80;8.30;;;;;16.80;99938.00;;;;4819588;29;20451;-80
2021/10/01 03:03:31;;;;;;;14.23;8.43;;;;;16.80;99969.00;;;;4819972;29;20055;-80
2021/10/01 03:06:04;;;;;;;15.80;7.95;;;;;16.80;99950.00;;;;4817761;29;20836;-79
2021/10/01 03:08:36;;;;;;;50.78;10.88;;;;;16.80;99949.00;;;;4818749;29;20169;-79
2021/10/01 03:11:12;;;;;;;;;;;;;16.80;99968.00;;;;4818879;29;20054;-78
2021/10/01 03:13:48;;;;;;;73.22;10.02;;;;;16.80;99981.00;;;;4818500;29;19936;-82
2021/10/01 03:16:20;;;;;;;13.98;6.38;;;;;16.90;99946.00;;;;4804211;29;20534;-77
2021/10/01 03:18:52;;;;;;;9.90;6.03;;;;;16.80;99880.00;;;;4818456;29;20065;-79
2021/10/01 03:21:24;;;;;;;24.77;6.78;;;;;16.70;99828.00;;;;4802729;29;20062;-78
2021/10/01 03:23:56;;;;;;;9.23;5.28;;;;;16.70;99726.00;;;;4818483;29;20545;-78
2021/10/01 03:26:29;;;;;;;14.48;6.18;;;;;16.70;99788.00;;;;4818166;29;20057;-79
2021/10/01 03:28:58;;;;;;;14.35;6.13;;;;;16.70;99794.00;;;;4819908;29;20042;-79
2021/10/01 03:31:28;;;;;;;10.75;6.38;;;;;16.70;99779.00;;;;4817757;29;20599;-79
2021/10/01 03:33:58;;;;;;;13.38;6.80;;;;;16.70;99739.00;;;;4817639;29;20065;-79
2021/10/01 03:36:29;;;;;;;10.82;5.25;;;;;16.70;99842.00;;;;4818486;29;20141;-78
2021/10/01 03:38:59;;;;;;;5.82;3.20;;;;;16.80;99825.00;;;;4818263;29;20383;-77
2021/10/01 03:41:29;;;;;;;3.10;2.30;;;;;16.80;99804.00;;;;4818592;29;20089;-77
2021/10/01 03:43:58;;;;;;;6.40;3.40;;;;;16.80;99851.00;;;;4803012;29;20567;-77
2021/10/01 03:46:28;;;;;;;4.97;3.88;;;;;16.90;99820.00;;;;4817122;29;20146;-77
2021/10/01 03:48:57;;;;;;;5.68;3.58;;;;;16.90;99832.00;;;;4819617;29;20419;-77
2021/10/01 03:51:26;;;;;;;3.58;2.80;;;;;16.90;99831.00;;;;4802894;29;20526;-78
2021/10/01 03:53:57;;;;;;;2.55;2.03;;;;;16.90;99834.00;;;;4817744;29;20114;-77
2021/10/01 03:56:27;;;;;;;;;;;;;16.90;99805.00;;;;4818015;29;20089;-77
2021/10/01 03:58:56;;;;;;;3.03;2.35;;;;;16.90;99794.00;;;;4817373;29;20698;-77
2021/10/01 04:01:26;;;;;;;3.72;2.92;;;;;16.90;99799.00;;;;4817253;29;20078;-77
2021/10/01 04:03:56;;;;;;;3.57;2.70;;;;;17.00;99802.00;;;;4817587;29;20088;-77
2021/10/01 04:06:26;;;;;;;2.92;2.63;;;;;17.00;99785.00;;;;4802882;29;20383;-77
2021/10/01 04:08:55;;;;;;;3.70;3.30;;;;;17.00;99782.00;;;;4802745;29;20047;-77
2021/10/01 04:11:25;;;;;;;5.55;4.10;;;;;17.00;99782.00;;;;4799025;29;20073;-77
2021/10/01 04:13:54;;;;;;;5.82;4.35;;;;;17.00;99793.00;;;;4787615;29;20150;-77
2021/10/01 04:16:26;;;;;;;4.38;3.80;;;;;17.00;99791.00;;;;4802355;29;20061;-76
2021/10/01 04:18:55;;;;;;;3.83;2.80;;;;;16.90;99794.00;;;;4817845;29;20130;-77
2021/10/01 04:21:25;;;;;;;2.90;2.35;;;;;17.00;99824.00;;;;4817342;29;20050;-77
2021/10/01 04:23:54;;;;;;;4.38;3.00;;;;;17.00;99813.00;;;;4818249;29;20577;-77
2021/10/01 04:26:49;;;;;;;1.30;1.15;;;;;17.00;99797.00;;;;4817431;29;20655;-77
2021/10/01 04:29:20;;;;;;;1.70;1.60;;;;;17.00;99781.00;;;;4817235;29;20137;-76
2021/10/01 04:31:49;;;;;;;5.40;4.97;;;;;17.00;99772.00;;;;4802783;29;20149;-77
2021/10/01 04:34:19;;;;;;;1.45;1.10;;;;;16.90;99783.00;;;;4817111;29;20059;-77
2021/10/01 04:36:49;;;;;;;7.82;4.57;;;;;16.90;99782.00;;;;4802129;29;20658;-76
2021/10/01 04:39:18;;;;;;;6.45;4.03;;;;;16.80;99777.00;;;;4801736;29;20054;-77
2021/10/01 04:41:47;;;;;;;7.82;4.53;;;;;16.90;99771.00;;;;4802373;29;20058;-76
2021/10/01 04:44:18;;;;;;;10.13;5.25;;;;;16.80;99794.00;;;;4808007;29;20059;-77
2021/10/01 04:46:51;;;;;;;6.03;4.63;;;;;16.80;99805.00;;;;4814907;29;20066;-75
2021/10/01 04:49:21;;;;;;;6.55;4.65;;;;;16.80;99800.00;;;;4817011;29;20056;-77
2021/10/01 04:51:51;;;;;;;7.55;5.18;;;;;16.90;99790.00;;;;4787914;29;20099;-78
2021/10/01 04:54:21;;;;;;;10.23;5.20;;;;;16.80;99791.00;;;;4817103;29;20056;-77
2021/10/01 04:56:50;;;;;;;13.70;5.78;;;;;16.70;99788.00;;;;4818706;29;20133;-77
2021/10/01 04:59:21;;;;;;;1.60;1.45;;;;;16.70;99819.00;;;;4816420;29;20518;-76
2021/10/01 05:02:08;;;;;;;3.88;2.30;;;;;16.70;99825.00;;;;4818524;29;20070;-77
2021/10/01 05:04:55;;;;;;;4.68;2.70;;;;;16.70;99812.00;;;;4816525;29;20536;-77
2021/10/01 05:07:50;;;;;;;0.98;0.90;;;;;16.70;99798.00;;;;4790575;29;20070;-77
2021/10/01 05:10:40;;;;;;;4.50;1.80;;;;;16.70;99804.00;;;;4788644;29;20404;-78
2021/10/01 05:13:28;;;;;;;6.95;2.10;;;;;16.60;99784.00;;;;4818098;29;20433;-76
2021/10/01 05:16:16;;;;;;;4.78;2.00;;;;;16.60;99775.00;;;;4817434;29;20069;-76
2021/10/01 05:19:04;;;;;;;2.30;1.40;;;;;16.60;99779.00;;;;4817969;29;20053;-77
2021/10/01 05:21:52;;;;;;;2.60;1.73;;;;;16.60;99778.00;;;;4818276;29;20211;-76
2021/10/01 05:24:22;;;;;;;3.58;2.00;;;;;16.50;99762.00;;;;4816255;29;20061;-78
2021/10/01 05:26:51;;;;;;;4.50;2.20;;;;;16.50;99751.00;;;;4801068;29;20507;-77
2021/10/01 05:29:21;;;;;;;2.78;1.75;;;;;16.40;99759.00;;;;4818253;29;20053;-78
2021/10/01 05:31:50;;;;;;;6.90;2.92;;;;;16.40;99751.00;;;;4817800;29;20058;-77
2021/10/01 05:34:20;;;;;;;7.10;2.25;;;;;16.40;99752.00;;;;4817784;29;20046;-78
2021/10/01 05:36:50;;;;;;;4.22;1.17;;;;;16.40;99748.00;;;;4816332;29;20468;-78
2021/10/01 05:39:20;;;;;;;0.55;0.50;;;;;16.40;99746.00;;;;4816770;29;20050;-77
2021/10/01 05:41:49;;;;;;;2.67;1.40;;;;;16.40;99747.00;;;;4816708;29;20066;-77
2021/10/01 05:44:18;;;;;;;1.13;0.85;;;;;16.40;99739.00;;;;4816767;29;20053;-76
2021/10/01 05:46:50;;;;;;;1.20;0.93;;;;;16.30;99713.00;;;;4817018;29;20064;-77
2021/10/01 05:49:40;;;;;;;3.20;1.38;;;;;16.30;99707.00;;;;4818497;29;20062;-77
2021/10/01 05:55:29;;;;;;;2.03;1.40;;;;;16.30;99700.00;;;;4799187;29;20069;-77
2021/10/01 05:58:18;;;;;;;2.58;1.10;;;;;16.30;99701.00;;;;4818556;29;20171;-77
2021/10/01 06:00:53;;;;;;;4.10;1.20;;;;;16.30;99679.00;;;;4816687;29;20087;-76
2021/10/01 06:03:24;;;;;;;4.90;1.63;;;;;16.20;99678.00;;;;4816074;29;20059;-78
2021/10/01 06:05:54;;;;;;;0.95;0.70;;;;;16.20;99661.00;;;;4815999;29;20062;-76
2021/10/01 06:08:23;;;;;;;0.35;0.30;;;;;16.20;99662.00;;;;4817098;29;20057;-77
2021/10/01 06:10:53;;;;;;;0.20;0.20;;;;;16.10;99682.00;;;;4817579;29;20574;-76
2021/10/01 06:13:22;;;;;;;0.45;0.30;;;;;16.10;99680.00;;;;4818476;29;20384;-75
2021/10/01 06:15:51;;;;;;;0.05;0.05;;;;;16.20;99666.00;;;;4817633;29;20043;-76
2021/10/01 06:18:21;;;;;;;0.20;0.20;;;;;16.10;99653.00;;;;4817452;29;20472;-76
2021/10/01 06:20:51;;;;;;;0.30;0.20;;;;;16.10;99627.00;;;;4817389;29;20103;-76
2021/10/01 06:23:23;;;;;;;0.00;0.00;;;;;16.10;99638.00;;;;4817170;29;20126;-76
2021/10/01 06:25:53;;;;;;;0.00;0.00;;;;;16.00;99643.00;;;;4817638;29;20058;-77
2021/10/01 06:28:22;;;;;;;0.20;0.20;;;;;16.00;99617.00;;;;4818894;29;20050;-76
2021/10/01 06:30:52;;;;;;;2.40;1.27;;;;;16.00;99617.00;;;;4819345;29;20043;-77
2021/10/01 06:33:22;;;;;;;1.20;1.10;;;;;16.10;99620.00;;;;4820542;29;20042;-75
2021/10/01 06:35:52;;;;;;;5.87;2.00;;;;;16.00;99611.00;;;;4820682;29;20485;-76
2021/10/01 06:38:21;;;;;;;2.75;1.50;;;;;16.00;99596.00;;;;4804576;29;20042;-77
2021/10/01 06:40:51;;;;;;;6.32;1.73;;;;;15.90;99587.00;;;;4820583;29;20427;-75
2021/10/01 06:43:21;;;;;;;5.20;1.42;;;;;15.90;99587.00;;;;4820364;29;20799;-76
2021/10/01 06:45:53;;;;;;;3.22;1.65;;;;;15.90;99585.00;;;;4820524;29;20050;-76
2021/10/01 06:51:18;;;;;;;2.95;1.40;;;;;15.90;99598.00;;;;4820359;29;20081;-76
2021/10/01 08:19:41;;;;;;;1.00;0.70;;;;;15.60;99514.00;;;;4819439;29;20838;-78
2021/10/01 08:22:13;;;;;;;0.80;0.80;;;;;15.60;99545.00;;;;4819355;29;20360;-80
2021/10/01 08:24:43;;;;;;;2.70;0.70;;;;;15.60;99538.00;;;;4819024;29;20050;-76
2021/10/01 08:27:12;;;;;;;0.60;0.55;;;;;15.60;99541.00;;;;4819163;29;20054;-79
2021/10/01 08:29:43;;;;;;;1.52;0.90;;;;;15.60;99528.00;;;;4818661;29;20043;-79
2021/10/01 08:32:12;;;;;;;2.33;0.77;;;;;15.50;99534.00;;;;4802286;29;20435;-77
2021/10/01 08:34:43;;;;;;;1.02;0.47;;;;;15.60;99540.00;;;;4819075;29;20051;-79
2021/10/01 08:37:16;;;;;;;4.17;1.40;;;;;15.50;99547.00;;;;4819496;29;20056;-77
2021/10/01 08:39:46;;;;;;;0.60;0.60;;;;;15.60;99533.00;;;;4818435;29;20295;-78
2021/10/01 08:42:39;;;;;;;19.52;5.50;;;;;15.50;99557.00;;;;4818488;29;20757;-76
2021/10/01 08:45:13;;;;;;;2.38;1.00;;;;;15.50;99580.00;;;;4818495;29;20061;-78
2021/10/01 08:47:45;;;;;;;1.50;0.98;;;;;15.40;99574.00;;;;4819191;29;20194;-76
2021/10/01 08:50:21;;;;;;;3.45;0.93;;;;;15.40;99581.00;;;;4817989;29;20056;-76
2021/10/01 08:52:51;;;;;;;2.45;1.00;;;;;15.40;99591.00;;;;4817070;29;20520;-76
2021/10/01 08:55:21;;;;;;;1.50;0.80;;;;;15.40;99592.00;;;;4818240;29;20042;-76
2021/10/01 08:57:50;;;;;;;1.67;0.68;;;;;15.40;99625.00;;;;4818228;29;20503;-76
2021/10/01 09:00:20;;;;;;;5.05;2.15;;;;;15.30;99623.00;;;;4818195;29;20050;-80
2021/10/01 09:02:50;;;;;;;12.05;3.53;;;;;15.40;99619.00;;;;4818342;29;20046;-79
2021/10/01 09:05:20;;;;;;;17.30;3.88;;;;;15.30;99625.00;;;;4816441;29;20054;-77
2021/10/01 09:07:50;;;;;;;7.95;3.05;;;;;15.30;99626.00;;;;4818269;29;20050;-76
2021/10/01 09:10:19;;;;;;;9.75;3.20;;;;;15.30;99619.00;;;;4817751;29;20058;-76
2021/10/01 09:12:54;;;;;;;10.05;3.30;;;;;15.30;99647.00;;;;4818117;29;20046;-77
2021/10/01 09:15:24;;;;;;;12.98;3.55;;;;;15.30;99635.00;;;;4818408;29;20050;-78
2021/10/01 09:17:59;;;;;;;9.43;3.80;;;;;15.20;99625.00;;;;4816170;29;20419;-77
2021/10/01 09:20:30;;;;;;;10.73;3.03;;;;;15.20;99643.00;;;;4816563;29;20058;-77
2021/10/01 09:23:25;;;;;;;12.43;3.05;;;;;15.20;99635.00;;;;4816003;29;20815;-77
2021/10/01 09:26:16;;;;;;;6.57;2.78;;;;;15.30;99673.00;;;;4817487;29;20434;-77
2021/10/01 09:29:01;;;;;;;9.55;2.50;;;;;15.40;99657.00;;;;4816941;29;20062;-76
2021/10/01 09:31:40;;;;;;;9.10;3.60;;;;;15.50;99677.00;;;;4818184;29;20062;-76
2021/10/01 09:34:25;;;;;;;12.07;3.60;;;;;15.50;99683.00;;;;4818321;29;20529;-77
2021/10/01 09:37:11;;;;;;;2.80;1.73;;;;;15.60;99690.00;;;;4817818;29;20056;-77
2021/10/01 09:39:49;;;;;;;4.82;2.20;;;;;15.60;99702.00;;;;4816108;29;20478;-77
2021/10/01 09:42:22;;;;;;;5.05;2.70;;;;;15.70;99700.00;;;;4818053;29;20434;-77
2021/10/01 09:44:56;;;;;;;12.40;3.38;;;;;15.80;99694.00;;;;4817697;29;20464;-77
2021/10/01 09:47:32;;;;;;;9.15;3.17;;;;;15.90;99680.00;;;;4817556;29;20378;-76
2021/10/01 09:50:27;;;;;;;4.30;2.00;;;;;15.90;99719.00;;;;4817402;29;20060;-77
2021/10/01 09:52:59;;;;;;;2.38;2.08;;;;;16.10;99706.00;;;;4817485;29;20400;-77
2021/10/01 09:55:50;;;;;;;12.63;3.40;;;;;16.30;99712.00;;;;4817004;29;20050;-77
2021/10/01 09:58:35;;;;;;;5.72;3.17;;;;;16.50;99722.00;;;;4815545;29;20099;-77
2021/10/01 10:01:05;;;;;;;6.10;3.15;;;;;16.70;99746.00;;;;4817570;29;20047;-76
2021/10/01 10:03:35;;;;;;;7.47;3.53;;;;;16.70;99758.00;;;;4818889;29;20415;-77
2021/10/01 10:06:14;;;;;;;3.38;2.83;;;;;16.70;99750.00;;;;4814040;29;20058;-77
2021/10/01 10:08:45;;;;;;;6.85;4.00;;;;;16.80;99768.00;;;;4820828;29;20069;-77
2021/10/01 10:11:19;;;;;;;9.30;4.00;;;;;16.90;99780.00;;;;4819875;29;20050;-78
2021/10/01 10:13:50;;;;;;;6.18;3.50;;;;;16.90;99779.00;;;;4803425;29;20043;-78
2021/10/01 10:16:25;;;;;;;9.03;4.23;;;;;17.00;99782.00;;;;4800475;29;20553;-79
2021/10/01 10:19:00;;;;;;;8.60;3.60;;;;;17.10;99781.00;;;;4802877;29;20058;-79
2021/10/01 10:21:31;;;;;;;5.43;3.72;;;;;17.30;99817.00;;;;4801430;29;20080;-77
2021/10/01 10:24:01;;;;;;;5.13;3.13;;;;;17.40;99818.00;;;;4801066;29;20051;-78
2021/10/01 10:26:31;;;;;;;4.72;3.80;;;;;17.40;99836.00;;;;4802197;29;20047;-79
2021/10/01 10:29:04;;;;;;;5.93;4.03;;;;;17.60;99843.00;;;;4801602;29;20067;-78
2021/10/01 10:31:37;;;;;;;5.22;3.10;;;;;17.60;99857.00;;;;4802889;29;20078;-78
2021/10/01 10:34:28;;;;;;;4.35;3.15;;;;;17.80;99869.00;;;;4803732;29;20061;-78
2021/10/01 10:37:10;;;;;;;3.08;2.17;;;;;17.70;99867.00;;;;4800358;29;20051;-78
2021/10/01 10:39:45;;;;;;;4.50;2.50;;;;;17.80;99869.00;;;;4802162;29;20476;-77
2021/10/01 10:42:37;;;;;;;5.07;2.88;;;;;17.90;99894.00;;;;4802628;29;20439;-76
2021/10/01 10:45:10;;;;;;;;;;;;;18.00;99891.00;;;;4802586;29;20125;-76
2021/10/01 10:47:56;;;;;;;5.88;2.90;;;;;17.90;99873.00;;;;4802113;29;20325;-78
2021/10/01 10:50:46;;;;;;;8.15;2.60;;;;;18.00;99885.00;;;;4801969;29;20477;-78
2021/10/01 10:53:25;;;;;;;6.57;3.72;;;;;18.20;99893.00;;;;4802250;29;20519;-76
2021/10/01 10:56:02;;;;;;;9.05;2.80;;;;;18.20;99897.00;;;;4800628;29;20055;-77
2021/10/01 10:58:39;;;;;;;7.28;4.38;;;;;18.20;99892.00;;;;4802670;29;20047;-78
2021/10/01 11:01:15;;;;;;;9.32;3.50;;;;;18.40;99892.00;;;;4801912;29;20057;-76
2021/10/01 11:04:12;;;;;;;6.80;3.50;;;;;18.50;99879.00;;;;4813428;29;20050;-77
2021/10/01 11:06:41;;;;;;;3.97;2.70;;;;;18.80;99869.00;;;;4819895;29;20077;-78
2021/10/01 11:09:26;;;;;;;9.70;3.10;;;;;18.90;99898.00;;;;4819387;29;20137;-77
2021/10/01 11:12:01;;;;;;;3.13;2.65;;;;;18.70;99900.00;;;;4820261;29;20075;-77
2021/10/01 11:14:33;;;;;;;5.35;2.88;;;;;18.60;99902.00;;;;4819355;29;20074;-76
2021/10/01 11:17:08;;;;;;;4.80;3.10;;;;;18.70;99924.00;;;;4820348;29;20112;-77
2021/10/01 11:19:41;;;;;;;8.25;3.70;;;;;18.70;99932.00;;;;4820018;29;20498;-77
2021/10/01 11:22:32;;;;;;;3.53;2.83;;;;;18.60;99926.00;;;;4820294;29;20542;-78
2021/10/01 11:25:10;;;;;;;16.98;4.78;;;;;18.70;99925.00;;;;4819558;29;20054;-78
2021/10/01 11:28:01;;;;;;;10.60;4.95;;;;;18.60;99943.00;;;;4819450;29;20586;-79
2021/10/01 11:30:37;;;;;;;8.95;4.30;;;;;18.70;99953.00;;;;4819889;29;20588;-77
2021/10/01 11:33:09;;;;;;;5.57;4.20;;;;;18.60;99945.00;;;;4803288;29;20534;-78
2021/10/01 11:35:54;;;;;;;6.82;4.90;;;;;18.60;99972.00;;;;4819632;29;20574;-78
2021/10/01 11:38:28;;;;;;;5.95;5.32;;;;;18.50;99960.00;;;;4819276;29;20395;-79
2021/10/01 11:41:06;;;;;;;8.30;6.03;;;;;18.40;99962.00;;;;4803734;29;20050;-79
2021/10/01 11:43:46;;;;;;;17.58;8.50;;;;;18.40;99980.00;;;;4800459;29;20108;-76
2021/10/01 11:46:52;;;;;;;10.77;9.18;;;;;18.40;99970.00;;;;4802087;29;20042;-77
2021/10/01 11:49:27;;;;;;;19.88;10.43;;;;;18.50;99982.00;;;;4803402;29;20046;-80
2021/10/01 11:52:13;;;;;;;18.63;10.02;;;;;18.50;99967.00;;;;4785789;29;20091;-77
2021/10/01 11:54:51;;;;;;;14.93;11.00;;;;;18.50;99968.00;;;;4801280;29;20058;-79
2021/10/01 11:57:21;;;;;;;15.52;9.75;;;;;18.50;99969.00;;;;4801124;29;20100;-77
2021/10/01 12:00:04;;;;;;;15.05;9.93;;;;;18.50;99982.00;;;;4801432;29;20059;-75
2021/10/01 12:02:48;;;;;;;13.10;9.68;;;;;18.60;99972.00;;;;4799413;29;20049;-77
2021/10/01 12:05:18;;;;;;;14.38;9.13;;;;;18.60;99978.00;;;;4800794;29;20519;-77
2021/10/01 12:07:55;;;;;;;16.05;10.95;;;;;18.70;99971.00;;;;4800745;29;20061;-77
2021/10/01 12:10:27;;;;;;;15.82;8.27;;;;;18.60;99969.00;;;;4800659;29;20618;-78
2021/10/01 12:13:03;;;;;;;14.35;7.22;;;;;18.50;99994.00;;;;4784426;29;20538;-78
2021/10/01 12:15:51;;;;;;;11.60;7.57;;;;;18.60;99983.00;;;;4801170;29;20127;-78
2021/10/01 12:18:54;;;;;;;8.23;6.07;;;;;18.60;100005.00;;;;4800699;29;20100;-77
2021/10/01 12:21:28;;;;;;;10.00;6.88;;;;;18.50;100001.00;;;;4799169;29;20043;-77
2021/10/01 12:24:01;;;;;;;21.00;10.90;;;;;18.50;99994.00;;;;4799696;29;20050;-77
2021/10/01 12:26:32;;;;;;;10.38;4.70;;;;;18.50;99972.00;;;;4800221;29;20058;-77
2021/10/01 12:29:11;;;;;;;3.95;3.53;;;;;18.50;99992.00;;;;4800754;29;20174;-78
2021/10/01 12:31:48;;;;;;;4.78;3.67;;;;;18.40;99988.00;;;;4800598;29;20047;-78
2021/10/01 12:34:56;;;;;;;6.28;4.00;;;;;18.40;99979.00;;;;4799759;29;20396;-77
2021/10/01 12:37:31;;;;;;;5.22;3.42;;;;;18.40;100001.00;;;;4762028;29;20490;-78
2021/10/01 12:40:03;;;;;;;8.75;8.05;;;;;18.40;99992.00;;;;4800582;29;20058;-77
2021/10/01 12:42:36;;;;;;;1.67;0.80;;;;;18.50;99983.00;;;;4812762;29;20059;-77
2021/10/01 12:45:09;;;;;;;11.40;6.70;;;;;18.50;100002.00;;;;4818603;29;20481;-76
2021/10/01 12:47:44;;;;;;;6.03;4.63;;;;;18.30;100025.00;;;;4818355;29;20133;-77
2021/10/01 12:50:15;;;;;;;5.78;3.83;;;;;18.30;100018.00;;;;4818129;29;20445;-77
2021/10/01 12:53:04;;;;;;;0.77;0.52;;;;;18.40;100014.00;;;;4817785;29;20046;-77
2021/10/01 12:55:35;;;;;;;6.32;3.75;;;;;18.30;100010.00;;;;4817027;29;20078;-77
2021/10/01 12:58:04;;;;;;;13.32;8.63;;;;;18.30;100018.00;;;;4817120;29;20058;-76
2021/10/01 13:00:39;;;;;;;19.88;8.88;;;;;18.30;100013.00;;;;4818222;29;20518;-77
2021/10/01 13:03:11;;;;;;;16.42;9.18;;;;;18.30;100037.00;;;;4818346;29;20054;-77
2021/10/01 13:05:43;;;;;;;9.98;5.70;;;;;18.30;100036.00;;;;4817214;29;20046;-77
2021/10/01 13:08:17;;;;;;;14.02;8.85;;;;;18.30;100029.00;;;;4817911;29;20058;-77
2021/10/01 13:10:56;;;;;;;9.48;4.05;;;;;18.30;100026.00;;;;4816465;29;20512;-77
2021/10/01 13:13:33;;;;;;;19.13;10.57;;;;;18.30;100049.00;;;;4817811;29;20073;-77
2021/10/01 13:16:05;;;;;;;15.90;8.95;;;;;18.40;100035.00;;;;4818570;29;20837;-77
2021/10/01 13:18:41;;;;;;;14.20;9.35;;;;;18.30;100031.00;;;;4818491;29;20054;-77
2021/10/01 13:21:15;;;;;;;11.85;8.77;;;;;18.40;100024.00;;;;4801273;29;20046;-76
2021/10/01 13:23:45;;;;;;;19.08;9.05;;;;;18.50;100026.00;;;;4817799;29;20058;-77
2021/10/01 13:26:28;;;;;;;9.15;5.18;;;;;18.50;100010.00;;;;4816242;29;20050;-77
2021/10/01 13:29:09;;;;;;;10.32;7.47;;;;;18.40;100030.00;;;;4818012;29;20050;-77
2021/10/01 13:31:47;;;;;;;21.40;7.82;;;;;18.60;100034.00;;;;4818442;29;20454;-76
2021/10/01 13:34:17;;;;;;;9.40;5.60;;;;;18.60;100032.00;;;;4817654;29;20100;-76
2021/10/01 13:36:47;;;;;;;5.18;4.68;;;;;18.60;100048.00;;;;4818043;29;20046;-76
2021/10/01 13:39:16;;;;;;;10.80;7.80;;;;;18.50;100038.00;;;;4817193;29;20429;-76
2021/10/01 13:41:46;;;;;;;10.98;6.97;;;;;18.50;100032.00;;;;4817422;29;20069;-77
2021/10/01 13:44:15;;;;;;;18.70;8.30;;;;;18.50;100053.00;;;;4817835;29;20058;-77
2021/10/01 13:46:45;;;;;;;9.65;7.70;;;;;18.60;100042.00;;;;4817446;29;20069;-76
2021/10/01 13:49:14;;;;;;;17.35;8.70;;;;;18.70;100047.00;;;;4817284;29;20145;-77
2021/10/01 13:51:43;;;;;;;29.00;8.07;;;;;18.70;100047.00;;;;4817874;29;20058;-77
2021/10/01 13:54:14;;;;;;;14.87;9.10;;;;;18.80;100054.00;;;;4801839;29;20558;-76
2021/10/01 13:56:43;;;;;;;15.88;7.88;;;;;18.80;100058.00;;;;4817745;29;20051;-77
2021/10/01 13:59:13;;;;;;;16.23;8.85;;;;;18.70;100052.00;;;;4817341;29;20105;-77
2021/10/01 14:01:42;;;;;;;13.18;7.75;;;;;18.80;100056.00;;;;4815923;29;20078;-76
2021/10/01 14:04:11;;;;;;;15.10;8.65;;;;;18.90;100050.00;;;;4817168;29;20047;-76
2021/10/01 14:06:41;;;;;;;8.85;7.90;;;;;18.90;100047.00;;;;4815593;29;20065;-76
2021/10/01 14:09:10;;;;;;;8.88;7.07;;;;;18.90;100073.00;;;;4816988;29;20057;-76
2021/10/01 14:12:00;;;;;;;11.55;6.90;;;;;18.90;100075.00;;;;4815820;29;20511;-76
2021/10/01 14:14:30;;;;;;;6.07;5.47;;;;;18.90;100077.00;;;;4800588;29;20068;-77
2021/10/01 14:16:59;;;;;;;7.50;6.55;;;;;18.90;100081.00;;;;4817655;29;20046;-77
2021/10/01 14:19:29;;;;;;;8.40;7.60;;;;;19.00;100088.00;;;;4817460;29;20257;-76
2021/10/01 14:21:58;;;;;;;6.13;5.50;;;;;19.10;100080.00;;;;4815461;29;20038;-76
2021/10/01 14:24:28;;;;;;;6.57;5.03;;;;;19.20;100093.00;;;;4817411;29;20065;-76
2021/10/01 14:26:57;;;;;;;5.18;4.75;;;;;19.30;100076.00;;;;4817089;29;20097;-76